Time;durP1;ratioP1;P1;durP2;ratioP2;P2;SDS_P1;SDS_P2;PMS_P1;PMS_P2;Temp;Humidity;BMP_temperature;BMP_pressure;BME280_temperature;BME280_humidity;BME280_pressure;Samples;Min_cycle;Max_cycle;Signal;HPM_P1;HPM_P2
2023/03/12 00:00:34;;;;;;;31.17;18.00;;;0.30;99.90;;;;;;5001070;28;20189;-82
2023/03/12 00:03:00;;;;;;;21.63;16.90;;;0.30;99.90;;;;;;5005368;28;20184;-82
2023/03/12 00:05:26;;;;;;;18.87;15.60;;;0.30;99.90;;;;;;4983539;28;20204;-80
2023/03/12 00:07:52;;;;;;;21.50;15.20;;;0.30;99.90;;;;;;4998932;28;20208;-81
2023/03/12 00:10:19;;;;;;;16.10;14.47;;;0.30;99.90;;;;;;5000889;28;20211;-81
2023/03/12 00:12:44;;;;;;;15.97;14.20;;;0.30;99.90;;;;;;5012487;28;20223;-81
2023/03/12 00:15:11;;;;;;;15.13;13.60;;;0.30;99.90;;;;;;5005256;28;20180;-81
2023/03/12 00:17:36;;;;;;;16.17;14.23;;;0.20;99.90;;;;;;5005625;28;20231;-81
2023/03/12 00:20:05;;;;;;;18.50;13.10;;;0.20;99.90;;;;;;4998720;28;20180;-82
2023/03/12 00:22:31;;;;;;;18.70;14.10;;;0.20;99.90;;;;;;4997826;28;20180;-82
2023/03/12 00:24:57;;;;;;;18.07;14.13;;;0.20;99.90;;;;;;4998516;28;20556;-81
2023/03/12 00:27:24;;;;;;;17.77;13.73;;;0.10;99.90;;;;;;4999573;28;20215;-81
2023/03/12 00:29:50;;;;;;;17.80;14.13;;;0.10;99.90;;;;;;4982086;28;20212;-81
2023/03/12 00:32:16;;;;;;;16.03;14.37;;;0.20;99.90;;;;;;4997827;28;20211;-82
2023/03/12 00:34:42;;;;;;;18.03;13.27;;;0.20;99.90;;;;;;4997431;28;20176;-81
2023/03/12 00:37:07;;;;;;;19.27;13.37;;;0.10;99.90;;;;;;4997847;28;20200;-81
2023/03/12 00:39:34;;;;;;;15.43;13.83;;;0.10;99.90;;;;;;4998210;28;20180;-81
2023/03/12 00:42:00;;;;;;;16.23;13.30;;;0.20;99.90;;;;;;4997835;28;20666;-81
2023/03/12 00:44:26;;;;;;;18.50;14.07;;;0.20;99.90;;;;;;4999829;28;20164;-82
2023/03/12 00:46:52;;;;;;;18.47;14.30;;;0.10;99.90;;;;;;4998077;28;20559;-82
2023/03/12 00:49:18;;;;;;;15.93;14.00;;;0.10;99.90;;;;;;4998545;28;20184;-81
2023/03/12 00:51:43;;;;;;;17.27;14.10;;;0.10;99.90;;;;;;4998414;28;20234;-82
2023/03/12 00:54:09;;;;;;;15.50;13.87;;;0.10;99.90;;;;;;4982032;28;20188;-82
2023/03/12 00:56:35;;;;;;;15.97;14.37;;;0.20;99.90;;;;;;4998176;28;20212;-81
2023/03/12 00:59:01;;;;;;;16.43;13.93;;;0.10;99.90;;;;;;4998129;28;20180;-81
2023/03/12 01:01:26;;;;;;;17.10;15.03;;;0.10;99.90;;;;;;4999576;28;20189;-81
2023/03/12 01:03:53;;;;;;;21.00;13.50;;;0.10;99.90;;;;;;5000693;28;20184;-81
2023/03/12 01:06:19;;;;;;;20.60;13.13;;;0.00;99.90;;;;;;5000634;28;20204;-82
2023/03/12 01:08:45;;;;;;;15.10;13.53;;;0.00;99.90;;;;;;4985005;28;20219;-82
2023/03/12 01:11:16;;;;;;;15.57;13.93;;;0.00;99.90;;;;;;5001136;28;20196;-82
2023/03/12 01:13:42;;;;;;;16.60;14.20;;;0.00;99.90;;;;;;5002782;28;20203;-82
2023/03/12 01:16:08;;;;;;;15.83;13.93;;;0.00;99.90;;;;;;5000852;28;20216;-82
2023/03/12 01:18:34;;;;;;;14.83;13.23;;;0.00;99.90;;;;;;5001623;28;20185;-81
2023/03/12 01:21:00;;;;;;;17.73;13.63;;;0.10;99.90;;;;;;5002547;28;20177;-81
2023/03/12 01:23:26;;;;;;;17.80;12.93;;;0.10;99.90;;;;;;5000858;28;20689;-82
2023/03/12 01:25:54;;;;;;;15.70;14.00;;;0.10;99.90;;;;;;5000494;28;20196;-81
2023/03/12 01:28:21;;;;;;;19.77;14.27;;;0.20;99.90;;;;;;5001270;28;20188;-82
2023/03/12 01:30:47;;;;;;;16.53;13.90;;;0.20;99.90;;;;;;5001361;28;20176;-81
2023/03/12 01:33:13;;;;;;;16.83;14.23;;;0.20;99.90;;;;;;5000870;28;20200;-82
2023/03/12 01:35:39;;;;;;;17.70;14.60;;;0.20;99.90;;;;;;5000871;28;20207;-81
2023/03/12 01:38:06;;;;;;;15.63;14.00;;;0.20;99.90;;;;;;5001234;28;20181;-81
2023/03/12 01:40:34;;;;;;;16.87;13.63;;;0.20;99.90;;;;;;5000753;28;20236;-82
2023/03/12 01:43:28;;;;;;;16.20;13.43;;;0.20;99.90;;;;;;5000774;28;20181;-81
2023/03/12 01:46:03;;;;;;;16.47;13.97;;;0.20;99.90;;;;;;5001939;28;20196;-82
2023/03/12 01:48:36;;;;;;;15.53;13.83;;;0.10;99.90;;;;;;5000544;28;20707;-82
2023/03/12 01:51:03;;;;;;;18.23;15.13;;;0.10;99.90;;;;;;4984435;28;20187;-81
2023/03/12 01:53:29;;;;;;;17.00;15.20;;;0.10;99.90;;;;;;4984208;28;20237;-81
2023/03/12 01:55:58;;;;;;;15.53;13.67;;;0.00;99.90;;;;;;5000600;28;20200;-81
2023/03/12 01:58:25;;;;;;;16.83;14.20;;;0.10;99.90;;;;;;5001967;28;20181;-81
2023/03/12 02:00:51;;;;;;;19.83;14.57;;;0.10;99.90;;;;;;5000512;28;20521;-82
2023/03/12 02:03:17;;;;;;;15.67;14.17;;;0.00;99.90;;;;;;4984570;28;20270;-82
2023/03/12 02:05:49;;;;;;;18.57;15.13;;;0.10;99.90;;;;;;4999951;28;20295;-81
2023/03/12 02:08:17;;;;;;;17.47;14.60;;;0.20;99.90;;;;;;5001650;28;20252;-82
2023/03/12 02:10:43;;;;;;;14.80;13.30;;;0.20;99.90;;;;;;5000375;28;20243;-81
2023/03/12 02:13:10;;;;;;;18.17;14.30;;;0.20;99.90;;;;;;5000299;28;20212;-81
2023/03/12 02:15:37;;;;;;;17.40;14.10;;;0.30;99.90;;;;;;5000585;28;20196;-81
2023/03/12 02:18:06;;;;;;;17.37;14.30;;;0.20;99.90;;;;;;5001100;28;20180;-82
2023/03/12 02:20:56;;;;;;;17.87;14.00;;;0.30;99.90;;;;;;5000690;28;20207;-82
2023/03/12 02:23:40;;;;;;;16.47;13.33;;;0.30;99.90;;;;;;5000753;28;20232;-81
2023/03/12 02:26:07;;;;;;;15.43;13.53;;;0.30;99.90;;;;;;5000535;28;20200;-81
2023/03/12 02:28:41;;;;;;;17.63;14.63;;;0.40;99.90;;;;;;5000589;28;20219;-82
2023/03/12 02:31:07;;;;;;;14.60;13.20;;;0.30;99.90;;;;;;4998985;28;20217;-81
2023/03/12 02:33:33;;;;;;;17.23;15.43;;;0.30;99.90;;;;;;4997069;28;20267;-82
2023/03/12 02:35:59;;;;;;;18.70;13.60;;;0.30;99.90;;;;;;4997263;28;20258;-81
2023/03/12 02:38:40;;;;;;;18.17;14.50;;;0.20;99.90;;;;;;4998779;28;20243;-82
2023/03/12 02:41:36;;;;;;;15.80;14.20;;;0.30;99.90;;;;;;4981899;28;20180;-81
2023/03/12 02:44:10;;;;;;;17.73;15.07;;;0.20;99.90;;;;;;4980958;28;20188;-81
2023/03/12 02:46:47;;;;;;;15.87;14.27;;;0.20;99.90;;;;;;4999399;28;20203;-82
2023/03/12 02:49:15;;;;;;;20.83;13.67;;;0.30;99.90;;;;;;4998805;28;20184;-81
2023/03/12 02:51:42;;;;;;;20.40;14.23;;;0.30;99.90;;;;;;4997893;28;20239;-81
2023/03/12 02:54:09;;;;;;;15.60;14.07;;;0.30;99.90;;;;;;4999078;28;20180;-81
2023/03/12 02:56:35;;;;;;;15.50;13.43;;;0.30;99.90;;;;;;4998641;28;20228;-82
2023/03/12 02:59:01;;;;;;;17.43;14.93;;;0.30;99.90;;;;;;4999687;28;20184;-82
2023/03/12 03:01:27;;;;;;;20.23;13.63;;;0.30;99.90;;;;;;4983151;28;20207;-82
2023/03/12 03:03:53;;;;;;;15.63;14.17;;;0.30;99.90;;;;;;4997176;28;20184;-82
2023/03/12 03:06:20;;;;;;;16.57;14.07;;;0.30;99.90;;;;;;4997918;28;20343;-82
2023/03/12 03:08:46;;;;;;;14.57;13.07;;;0.30;99.90;;;;;;4998603;28;20633;-82
2023/03/12 03:11:12;;;;;;;15.87;14.10;;;0.30;99.90;;;;;;4997625;28;20196;-82
2023/03/12 03:13:38;;;;;;;14.73;13.20;;;0.40;99.90;;;;;;4997373;28;20180;-82
2023/03/12 03:16:04;;;;;;;15.47;13.73;;;0.50;99.90;;;;;;4998967;28;20203;-81
2023/03/12 03:18:31;;;;;;;18.10;13.77;;;0.50;99.90;;;;;;4997630;28;20275;-82
2023/03/12 03:20:59;;;;;;;18.10;13.43;;;0.50;99.90;;;;;;4999382;28;20160;-81
2023/03/12 03:23:24;;;;;;;17.07;13.57;;;0.50;99.90;;;;;;5004646;28;20227;-82
2023/03/12 03:25:54;;;;;;;14.67;13.13;;;0.50;99.90;;;;;;5003026;28;20567;-81
2023/03/12 03:28:21;;;;;;;18.27;13.57;;;0.50;99.90;;;;;;5003117;28;20177;-82
2023/03/12 03:30:51;;;;;;;14.07;12.57;;;0.50;99.90;;;;;;4984707;28;20575;-82
2023/03/12 03:33:16;;;;;;;15.43;13.83;;;0.50;99.90;;;;;;5001890;28;20199;-82
2023/03/12 03:35:42;;;;;;;14.30;12.90;;;0.40;99.90;;;;;;4999380;28;20658;-82
2023/03/12 03:38:08;;;;;;;14.57;13.10;;;0.40;99.90;;;;;;5001070;28;20223;-81
2023/03/12 03:40:33;;;;;;;14.67;13.27;;;0.40;99.90;;;;;;5000053;28;20188;-81
2023/03/12 03:42:59;;;;;;;13.70;12.50;;;0.40;99.90;;;;;;4999987;28;20192;-82
2023/03/12 03:45:25;;;;;;;14.83;12.90;;;0.40;99.90;;;;;;4999695;28;20201;-81
2023/03/12 03:47:51;;;;;;;13.93;12.53;;;0.30;99.90;;;;;;5005535;28;20708;-81
2023/03/12 03:50:16;;;;;;;14.87;13.23;;;0.30;99.90;;;;;;5002909;28;20183;-82
2023/03/12 03:52:42;;;;;;;13.13;11.93;;;0.30;99.90;;;;;;4984355;28;20262;-82
2023/03/12 03:55:08;;;;;;;13.30;12.00;;;0.40;99.90;;;;;;5000378;28;20201;-82
2023/03/12 03:57:34;;;;;;;14.50;13.00;;;0.40;99.90;;;;;;4998380;28;20180;-82
2023/03/12 03:59:59;;;;;;;13.00;11.77;;;0.40;99.90;;;;;;4997816;28;20180;-81
2023/03/12 04:02:26;;;;;;;13.33;11.37;;;0.40;99.90;;;;;;4981607;28;20271;-82
2023/03/12 04:04:55;;;;;;;13.87;12.43;;;0.40;99.90;;;;;;4998116;28;20575;-81
2023/03/12 04:07:22;;;;;;;15.03;12.10;;;0.40;99.90;;;;;;4997470;28;20311;-82
2023/03/12 04:09:48;;;;;;;13.27;11.93;;;0.40;99.90;;;;;;4999146;28;20552;-81
2023/03/12 04:12:14;;;;;;;14.13;12.63;;;0.30;99.90;;;;;;4998074;28;20231;-82
2023/03/12 04:14:40;;;;;;;12.83;11.57;;;0.30;99.90;;;;;;4999007;28;20172;-82
2023/03/12 04:17:07;;;;;;;12.73;11.43;;;0.30;99.90;;;;;;4998147;28;20216;-82
2023/03/12 04:19:32;;;;;;;13.20;11.80;;;0.30;99.90;;;;;;4999720;28;20610;-82
2023/03/12 04:21:58;;;;;;;15.80;11.97;;;0.30;99.90;;;;;;4998602;28;20215;-82
2023/03/12 04:24:24;;;;;;;13.33;12.03;;;0.30;99.90;;;;;;4999370;28;20207;-81
2023/03/12 04:26:50;;;;;;;13.87;11.93;;;0.30;99.90;;;;;;4997811;28;20212;-82
2023/03/12 04:29:17;;;;;;;13.50;12.30;;;0.30;99.90;;;;;;4998421;28;20188;-82
2023/03/12 04:31:43;;;;;;;11.87;10.63;;;0.30;99.90;;;;;;4998238;28;20212;-82
2023/03/12 04:34:09;;;;;;;14.87;12.37;;;0.30;99.90;;;;;;4998347;28;20627;-82
2023/03/12 04:36:34;;;;;;;12.07;10.60;;;0.30;99.90;;;;;;4998307;28;20232;-82
2023/03/12 04:39:00;;;;;;;14.40;10.63;;;0.40;99.90;;;;;;5001584;28;20180;-81
2023/03/12 04:41:26;;;;;;;12.87;11.03;;;0.40;99.90;;;;;;5003056;28;20181;-81
2023/03/12 04:43:52;;;;;;;12.23;11.00;;;0.50;99.90;;;;;;5002502;28;20181;-81
2023/03/12 04:46:18;;;;;;;14.20;10.93;;;0.50;99.90;;;;;;4986038;28;20205;-83
2023/03/12 04:48:43;;;;;;;12.87;11.27;;;0.50;99.90;;;;;;5002209;28;20180;-82
2023/03/12 04:51:09;;;;;;;13.17;10.90;;;0.50;99.90;;;;;;5001899;28;20199;-82
2023/03/12 04:53:35;;;;;;;12.87;11.27;;;0.50;99.90;;;;;;5001730;28;20264;-81
2023/03/12 04:56:01;;;;;;;12.17;10.97;;;0.50;99.90;;;;;;5002254;28;20200;-81
2023/03/12 04:58:26;;;;;;;12.33;11.03;;;0.50;99.90;;;;;;5003741;28;20179;-82
2023/03/12 05:00:52;;;;;;;11.00;10.10;;;0.50;99.90;;;;;;5004080;28;20177;-81
2023/03/12 05:03:18;;;;;;;11.97;10.77;;;0.50;99.90;;;;;;5002932;28;20184;-82
2023/03/12 05:05:44;;;;;;;11.37;10.17;;;0.50;99.90;;;;;;5003761;28;20204;-81
2023/03/12 05:08:10;;;;;;;10.87;9.73;;;0.50;99.90;;;;;;5002686;28;20598;-81
2023/03/12 05:10:35;;;;;;;10.03;9.00;;;0.60;99.90;;;;;;4986871;28;20176;-82
2023/03/12 05:13:01;;;;;;;9.67;8.67;;;0.60;99.90;;;;;;4987003;28;20318;-82
2023/03/12 05:15:27;;;;;;;9.60;8.80;;;0.70;99.90;;;;;;5003484;28;20250;-82
2023/03/12 05:17:52;;;;;;;8.90;8.20;;;0.70;99.90;;;;;;4986533;28;20203;-83
2023/03/12 05:20:18;;;;;;;8.77;8.00;;;0.90;99.90;;;;;;4986765;28;20251;-82
2023/03/12 05:22:44;;;;;;;9.00;8.10;;;1.00;99.90;;;;;;4986769;28;20617;-82
2023/03/12 05:25:10;;;;;;;8.63;7.83;;;1.10;99.90;;;;;;4987421;28;20215;-82
2023/03/12 05:27:36;;;;;;;9.10;7.83;;;1.10;99.90;;;;;;4986821;28;20184;-82
2023/03/12 05:30:04;;;;;;;8.73;7.63;;;1.20;99.90;;;;;;4987121;28;20190;-82
2023/03/12 05:32:30;;;;;;;8.13;7.53;;;1.20;99.90;;;;;;4986570;28;20647;-82
2023/03/12 05:34:56;;;;;;;8.47;7.77;;;1.20;99.90;;;;;;5004307;28;20200;-81
2023/03/12 05:37:21;;;;;;;9.87;8.93;;;1.20;99.90;;;;;;4987203;28;20177;-81
2023/03/12 05:39:47;;;;;;;9.30;8.50;;;1.10;99.90;;;;;;5004929;28;20173;-82
2023/03/12 05:42:13;;;;;;;9.23;8.00;;;1.10;99.90;;;;;;4986797;28;20208;-82
2023/03/12 05:44:40;;;;;;;9.13;8.40;;;1.10;99.90;;;;;;4987130;28;20216;-82
2023/03/12 05:47:06;;;;;;;8.80;8.00;;;1.10;99.90;;;;;;4986936;28;20613;-82
2023/03/12 05:49:32;;;;;;;8.20;7.50;;;1.10;99.90;;;;;;4987048;28;20181;-81
2023/03/12 05:51:57;;;;;;;8.83;7.87;;;1.20;99.90;;;;;;4987336;28;20295;-82
2023/03/12 05:54:23;;;;;;;15.87;8.33;;;1.20;99.90;;;;;;4987875;28;20191;-82
2023/03/12 05:56:49;;;;;;;8.23;7.53;;;1.20;99.90;;;;;;4999286;28;20576;-81
2023/03/12 05:59:15;;;;;;;9.07;7.83;;;1.30;99.90;;;;;;4982287;28;20185;-81
2023/03/12 06:01:41;;;;;;;10.47;7.47;;;1.40;99.90;;;;;;4981397;28;20193;-81
2023/03/12 06:04:07;;;;;;;8.10;7.37;;;1.60;99.90;;;;;;4981469;28;20188;-82
2023/03/12 06:06:35;;;;;;;7.90;7.20;;;1.70;99.90;;;;;;4981853;28;20669;-82
2023/03/12 06:09:02;;;;;;;7.67;6.97;;;1.70;99.90;;;;;;4981818;28;20247;-82
2023/03/12 06:11:28;;;;;;;7.53;7.03;;;1.70;99.90;;;;;;4982975;28;20212;-82
2023/03/12 06:13:55;;;;;;;7.90;7.20;;;1.80;99.90;;;;;;4983631;28;20181;-82
2023/03/12 06:16:23;;;;;;;9.13;7.50;;;1.80;99.90;;;;;;4984244;28;20199;-82
2023/03/12 06:18:54;;;;;;;7.83;7.20;;;1.80;99.90;;;;;;4981831;28;20180;-82
2023/03/12 06:21:22;;;;;;;7.80;7.20;;;1.90;99.90;;;;;;4981623;28;20204;-82
2023/03/12 06:23:48;;;;;;;9.23;7.30;;;2.00;99.90;;;;;;4998276;28;20272;-82
2023/03/12 06:26:15;;;;;;;9.73;7.50;;;2.00;99.90;;;;;;4980407;28;20204;-81
2023/03/12 06:28:41;;;;;;;7.63;7.00;;;2.00;99.90;;;;;;4979664;28;20187;-81
2023/03/12 06:31:09;;;;;;;8.03;7.30;;;2.00;99.90;;;;;;4980221;28;20184;-82
2023/03/12 06:33:35;;;;;;;8.67;7.20;;;2.10;99.90;;;;;;4980137;28;20192;-80
2023/03/12 06:36:02;;;;;;;7.60;6.93;;;2.10;99.90;;;;;;4980095;28;20197;-80
2023/03/12 06:38:28;;;;;;;8.10;7.33;;;2.10;99.90;;;;;;4997314;28;20184;-80
2023/03/12 06:40:54;;;;;;;9.80;7.20;;;2.20;99.90;;;;;;4979781;28;20185;-81
2023/03/12 06:43:20;;;;;;;8.53;7.77;;;2.30;99.90;;;;;;4996321;28;20534;-81
2023/03/12 06:45:46;;;;;;;11.87;7.23;;;2.30;99.90;;;;;;4996892;28;20231;-78
2023/03/12 06:48:11;;;;;;;8.10;7.30;;;2.30;99.90;;;;;;4978728;28;20185;-78
2023/03/12 06:50:37;;;;;;;8.37;6.90;;;2.30;99.90;;;;;;4978780;28;20630;-78
2023/03/12 06:53:03;;;;;;;8.20;7.40;;;2.30;99.90;;;;;;4978660;28;20208;-78
2023/03/12 06:55:28;;;;;;;7.97;7.30;;;2.40;99.90;;;;;;4979752;28;20204;-79
2023/03/12 06:57:54;;;;;;;8.30;7.13;;;2.40;99.90;;;;;;4980392;28;20176;-79
2023/03/12 07:00:20;;;;;;;8.57;7.67;;;2.50;99.90;;;;;;4979191;28;20191;-79
2023/03/12 07:02:46;;;;;;;8.20;7.40;;;2.50;99.90;;;;;;4996871;28;20180;-79
2023/03/12 07:05:12;;;;;;;8.07;7.47;;;2.50;99.90;;;;;;4979062;28;20271;-79
2023/03/12 07:07:37;;;;;;;7.80;7.20;;;2.40;99.90;;;;;;4979410;28;20189;-79
2023/03/12 07:10:05;;;;;;;8.40;7.60;;;2.40;99.90;;;;;;4978933;28;20722;-79
2023/03/12 07:12:32;;;;;;;9.20;7.50;;;2.50;99.90;;;;;;4978048;28;20677;-78
2023/03/12 07:14:58;;;;;;;8.07;7.37;;;2.50;99.90;;;;;;4978369;28;20223;-79
2023/03/12 07:17:25;;;;;;;8.07;7.40;;;2.60;99.90;;;;;;4978757;28;20180;-78
2023/03/12 07:19:51;;;;;;;8.90;8.00;;;2.60;99.90;;;;;;4978521;28;20180;-78
2023/03/12 07:22:17;;;;;;;8.63;7.40;;;2.70;99.90;;;;;;4978818;28;20558;-78
2023/03/12 07:24:42;;;;;;;8.07;7.47;;;2.70;99.90;;;;;;4978976;28;20204;-79
2023/03/12 07:27:08;;;;;;;11.80;7.60;;;2.70;99.90;;;;;;4978397;28;20191;-78
2023/03/12 07:29:34;;;;;;;11.80;8.00;;;2.70;99.90;;;;;;4978592;28;20328;-78
2023/03/12 07:32:00;;;;;;;8.30;7.60;;;2.60;99.90;;;;;;4978009;28;20673;-78
2023/03/12 07:34:25;;;;;;;8.30;7.50;;;2.70;99.90;;;;;;4978524;28;20204;-77
2023/03/12 07:36:51;;;;;;;9.03;7.97;;;2.70;99.90;;;;;;4995471;28;20665;-78
2023/03/12 07:39:18;;;;;;;8.40;7.63;;;2.70;99.90;;;;;;4996219;28;20183;-78
2023/03/12 07:41:43;;;;;;;8.20;7.40;;;2.70;99.90;;;;;;4978431;28;20185;-78
2023/03/12 07:44:09;;;;;;;9.57;8.10;;;2.70;99.90;;;;;;4978411;28;20195;-78
2023/03/12 07:46:35;;;;;;;8.37;7.67;;;2.80;99.90;;;;;;4978898;28;20204;-78
2023/03/12 07:49:01;;;;;;;9.57;8.57;;;2.80;99.90;;;;;;4978600;28;20180;-78
2023/03/12 07:51:27;;;;;;;9.60;8.53;;;2.80;99.90;;;;;;4979084;28;20189;-78
2023/03/12 07:53:52;;;;;;;8.93;8.17;;;2.90;99.90;;;;;;4995733;28;20187;-78
2023/03/12 07:56:18;;;;;;;8.97;8.07;;;2.90;99.90;;;;;;4994862;28;20195;-78
2023/03/12 07:58:44;;;;;;;9.30;8.47;;;2.90;99.90;;;;;;4995420;28;20187;-78
2023/03/12 08:01:10;;;;;;;9.00;8.20;;;3.00;99.90;;;;;;4978057;28;20227;-78
2023/03/12 08:03:35;;;;;;;9.57;8.47;;;3.00;99.90;;;;;;4977952;28;20188;-78
2023/03/12 08:06:02;;;;;;;8.93;8.03;;;3.10;99.90;;;;;;4995652;28;20276;-79
2023/03/12 08:08:29;;;;;;;9.87;8.03;;;3.00;99.90;;;;;;4978179;28;20184;-79
2023/03/12 08:10:56;;;;;;;8.93;8.03;;;3.00;99.90;;;;;;4996713;28;20172;-79
2023/03/12 08:13:23;;;;;;;11.13;8.43;;;3.00;99.90;;;;;;4982622;28;20331;-79
2023/03/12 08:15:52;;;;;;;9.20;8.40;;;3.00;99.90;;;;;;4982283;28;20205;-79
2023/03/12 08:18:19;;;;;;;8.70;8.00;;;3.00;99.90;;;;;;4982091;28;20270;-79
2023/03/12 08:20:50;;;;;;;9.87;8.90;;;3.00;99.90;;;;;;4982715;28;20184;-79
2023/03/12 08:23:16;;;;;;;10.77;9.00;;;3.00;99.90;;;;;;4982830;28;20207;-79
2023/03/12 08:25:46;;;;;;;9.47;8.73;;;3.00;99.90;;;;;;4982894;28;20204;-79
2023/03/12 08:28:12;;;;;;;9.30;8.40;;;3.00;99.90;;;;;;4982250;28;20276;-79
2023/03/12 08:30:37;;;;;;;10.40;9.60;;;3.00;99.90;;;;;;4999656;28;20641;-79
2023/03/12 08:33:04;;;;;;;10.43;9.47;;;3.00;99.90;;;;;;4981880;28;20212;-79
2023/03/12 08:35:30;;;;;;;10.67;9.57;;;3.00;99.90;;;;;;4981867;28;20287;-79
2023/03/12 08:37:56;;;;;;;10.70;8.77;;;3.00;99.90;;;;;;4982130;28;20164;-79
2023/03/12 08:40:23;;;;;;;10.30;8.50;;;3.00;99.90;;;;;;4981779;28;20191;-79
2023/03/12 08:42:49;;;;;;;10.40;8.70;;;3.00;99.90;;;;;;4982327;28;20251;-79
2023/03/12 08:45:15;;;;;;;8.43;7.73;;;3.10;99.90;;;;;;4981119;28;20208;-79
2023/03/12 08:47:42;;;;;;;9.50;8.60;;;3.10;99.90;;;;;;4981381;28;20180;-79
2023/03/12 08:50:10;;;;;;;11.43;9.77;;;3.10;99.90;;;;;;4999547;28;20188;-79
2023/03/12 08:52:36;;;;;;;13.50;9.33;;;3.10;99.90;;;;;;4981152;28;20262;-79
2023/03/12 08:55:02;;;;;;;9.83;8.93;;;3.20;99.90;;;;;;4982043;28;20673;-79
2023/03/12 08:57:28;;;;;;;10.80;9.73;;;3.20;99.90;;;;;;4982075;28;20660;-78
2023/03/12 08:59:54;;;;;;;11.70;9.20;;;3.30;99.90;;;;;;4982156;28;20549;-78
2023/03/12 09:02:19;;;;;;;9.40;8.60;;;3.30;99.90;;;;;;4981819;28;20180;-78
2023/03/12 09:04:49;;;;;;;11.60;8.77;;;3.40;99.90;;;;;;4981047;28;20688;-79
2023/03/12 09:07:17;;;;;;;9.83;8.90;;;3.40;99.90;;;;;;4997538;28;20604;-79
2023/03/12 09:09:44;;;;;;;9.40;8.37;;;3.50;99.90;;;;;;4998517;28;20180;-79
2023/03/12 09:12:10;;;;;;;12.23;8.87;;;3.50;99.90;;;;;;4998299;28;20238;-79
2023/03/12 09:14:35;;;;;;;10.03;8.67;;;3.60;99.90;;;;;;4980811;28;20664;-79
2023/03/12 09:17:01;;;;;;;9.37;8.50;;;3.60;99.90;;;;;;4981038;28;20185;-79
2023/03/12 09:19:28;;;;;;;9.63;8.80;;;3.60;99.90;;;;;;4980099;28;20211;-79
2023/03/12 09:21:54;;;;;;;9.27;8.37;;;3.60;99.90;;;;;;4980715;28;20192;-79
2023/03/12 09:24:19;;;;;;;9.83;8.83;;;3.70;99.90;;;;;;4980446;28;20197;-79
2023/03/12 09:26:45;;;;;;;9.63;8.63;;;3.80;99.90;;;;;;4981566;28;20208;-79
2023/03/12 09:29:11;;;;;;;9.53;8.73;;;3.80;99.90;;;;;;4981437;28;20185;-79
2023/03/12 09:31:37;;;;;;;9.37;8.57;;;3.90;99.90;;;;;;4982213;28;20219;-79
2023/03/12 09:34:03;;;;;;;9.57;8.70;;;4.00;99.90;;;;;;4987180;28;20188;-78
2023/03/12 09:36:29;;;;;;;11.77;8.77;;;4.00;99.90;;;;;;4981056;28;20208;-79
2023/03/12 09:38:55;;;;;;;10.27;8.97;;;4.10;99.90;;;;;;4979525;28;20184;-79
2023/03/12 09:41:30;;;;;;;9.27;8.37;;;4.10;99.90;;;;;;4980278;28;20180;-79
2023/03/12 09:44:15;;;;;;;9.43;8.53;;;4.10;99.90;;;;;;4980453;28;20176;-79
2023/03/12 09:46:52;;;;;;;8.37;7.77;;;4.30;99.90;;;;;;4996364;28;20732;-79
2023/03/12 09:49:31;;;;;;;9.07;8.27;;;4.40;99.90;;;;;;4997812;28;20171;-79
2023/03/12 09:51:59;;;;;;;8.63;7.80;;;4.40;99.90;;;;;;4997599;28;20283;-79
2023/03/12 09:54:48;;;;;;;9.10;8.20;;;4.40;99.90;;;;;;4980245;28;20560;-79
2023/03/12 09:57:22;;;;;;;8.17;7.40;;;4.40;99.90;;;;;;4997737;28;20163;-79
2023/03/12 09:59:49;;;;;;;8.20;7.50;;;4.50;99.90;;;;;;4980569;28;20181;-79
2023/03/12 10:02:36;;;;;;;13.10;7.30;;;4.50;99.90;;;;;;4979939;28;20185;-78
2023/03/12 10:05:09;;;;;;;8.77;7.97;;;4.50;99.90;;;;;;4995580;28;20764;-79
2023/03/12 10:08:00;;;;;;;7.97;7.37;;;4.50;99.90;;;;;;4997391;28;20232;-79
2023/03/12 10:10:32;;;;;;;7.90;7.10;;;4.50;99.90;;;;;;4973350;28;20199;-78
2023/03/12 10:13:23;;;;;;;9.33;7.10;;;4.50;99.90;;;;;;4995792;28;20208;-78
2023/03/12 10:16:01;;;;;;;7.97;7.20;;;4.50;99.90;;;;;;4979811;28;20200;-79
2023/03/12 10:19:00;;;;;;;7.60;7.00;;;4.50;99.90;;;;;;4998326;28;20175;-78
2023/03/12 10:21:45;;;;;;;7.93;7.30;;;4.50;99.90;;;;;;4996039;28;20548;-78
2023/03/12 10:24:27;;;;;;;7.80;7.10;;;4.50;99.90;;;;;;4995717;28;20615;-78
2023/03/12 10:26:56;;;;;;;8.27;7.27;;;4.50;99.90;;;;;;4995292;28;20247;-79
2023/03/12 10:29:29;;;;;;;7.80;7.20;;;4.60;99.90;;;;;;4981288;28;20641;-79
2023/03/12 10:32:01;;;;;;;7.80;7.13;;;4.70;99.90;;;;;;4980810;28;20706;-79
2023/03/12 10:34:36;;;;;;;9.87;7.17;;;4.60;99.90;;;;;;4996309;28;20180;-79
2023/03/12 10:37:32;;;;;;;7.60;6.90;;;4.60;99.90;;;;;;4998237;28;20152;-79
2023/03/12 10:39:59;;;;;;;8.63;7.83;;;4.50;99.90;;;;;;4996684;28;20192;-79
2023/03/12 10:42:29;;;;;;;7.50;7.00;;;4.40;99.90;;;;;;4997672;28;20180;-79
2023/03/12 10:45:34;;;;;;;8.50;7.73;;;4.40;99.90;;;;;;4980328;28;20204;-79
2023/03/12 10:48:05;;;;;;;7.80;7.07;;;4.40;99.90;;;;;;5000164;28;20179;-80
2023/03/12 10:50:35;;;;;;;7.90;7.30;;;4.50;99.90;;;;;;4999325;28;20168;-80
2023/03/12 10:53:30;;;;;;;7.83;7.20;;;4.60;99.90;;;;;;4983379;28;20201;-80
2023/03/12 10:56:09;;;;;;;8.40;7.70;;;4.70;99.90;;;;;;4982550;28;20207;-80
2023/03/12 10:58:47;;;;;;;7.77;7.17;;;4.80;99.90;;;;;;5000495;28;20167;-80
2023/03/12 11:01:20;;;;;;;8.87;7.63;;;4.80;99.90;;;;;;4999735;28;20220;-80
2023/03/12 11:03:46;;;;;;;7.37;6.83;;;4.80;99.90;;;;;;4982451;28;20181;-80
2023/03/12 11:06:30;;;;;;;7.27;6.63;;;4.80;99.90;;;;;;4981246;28;20196;-80
2023/03/12 11:09:16;;;;;;;9.10;7.00;;;4.90;99.90;;;;;;4980467;28;20183;-80
2023/03/12 11:11:44;;;;;;;7.10;6.60;;;5.00;99.90;;;;;;4981016;28;20273;-80
2023/03/12 11:14:24;;;;;;;7.57;6.77;;;5.00;99.90;;;;;;4981683;28;20223;-80
2023/03/12 11:16:51;;;;;;;7.20;6.57;;;5.00;99.90;;;;;;4998125;28;20196;-80
2023/03/12 11:19:32;;;;;;;7.27;6.70;;;5.10;99.90;;;;;;4998280;28;20177;-80
2023/03/12 11:22:07;;;;;;;6.83;6.27;;;5.10;99.90;;;;;;4998235;28;20184;-80
2023/03/12 11:24:34;;;;;;;6.97;6.50;;;5.20;99.90;;;;;;4980786;28;20204;-81
2023/03/12 11:27:09;;;;;;;7.00;6.50;;;5.30;99.90;;;;;;4980269;28;20192;-80
2023/03/12 11:29:42;;;;;;;7.37;6.77;;;5.40;99.90;;;;;;4997577;28;20199;-79
2023/03/12 11:32:18;;;;;;;7.13;6.53;;;5.40;99.90;;;;;;4980118;28;20215;-80
2023/03/12 11:34:48;;;;;;;7.13;6.53;;;5.50;99.90;;;;;;4980537;28;20179;-80
2023/03/12 11:37:44;;;;;;;6.60;6.10;;;5.50;99.90;;;;;;4997263;28;20234;-80
2023/03/12 11:40:31;;;;;;;6.10;5.70;;;5.50;99.90;;;;;;4996269;28;20169;-80
2023/03/12 11:43:23;;;;;;;6.90;6.20;;;5.60;99.90;;;;;;4996799;28;20307;-80
2023/03/12 11:46:04;;;;;;;7.67;6.80;;;5.60;99.90;;;;;;4979865;28;20208;-80
2023/03/12 11:48:54;;;;;;;7.10;6.47;;;5.60;99.90;;;;;;4995916;28;20185;-80
2023/03/12 11:51:28;;;;;;;6.93;6.33;;;5.60;99.90;;;;;;4995648;28;20622;-80
2023/03/12 11:54:07;;;;;;;6.80;6.30;;;5.70;99.90;;;;;;4995374;28;20191;-80
2023/03/12 11:56:40;;;;;;;7.50;6.90;;;5.70;99.90;;;;;;4997949;28;20196;-80
2023/03/12 11:59:20;;;;;;;6.83;6.33;;;5.70;99.90;;;;;;4980207;28;20191;-80
2023/03/12 12:01:57;;;;;;;6.87;6.30;;;5.70;99.90;;;;;;4996260;28;20625;-80
2023/03/12 12:04:50;;;;;;;6.97;6.40;;;5.80;99.90;;;;;;4996531;28;20168;-79
2023/03/12 12:07:22;;;;;;;6.83;6.33;;;5.80;99.90;;;;;;4995197;28;20179;-80
2023/03/12 12:09:47;;;;;;;6.77;6.17;;;5.90;99.90;;;;;;4994717;28;20570;-80
2023/03/12 12:12:50;;;;;;;8.47;7.23;;;5.90;99.90;;;;;;4994928;28;20208;-80
2023/03/12 12:15:35;;;;;;;7.73;7.10;;;5.90;99.90;;;;;;4995397;28;20270;-80
2023/03/12 12:18:03;;;;;;;7.23;6.63;;;6.00;99.90;;;;;;4995566;28;20188;-79
2023/03/12 12:20:51;;;;;;;7.57;6.87;;;6.00;99.90;;;;;;4995619;28;20180;-79
2023/03/12 12:23:36;;;;;;;8.80;7.37;;;6.10;99.90;;;;;;4978464;28;20203;-79
2023/03/12 12:26:09;;;;;;;7.80;7.10;;;6.10;99.90;;;;;;4979438;28;20204;-79
2023/03/12 12:29:00;;;;;;;7.00;6.40;;;6.20;99.90;;;;;;4980156;28;20652;-79
2023/03/12 12:31:39;;;;;;;6.60;6.00;;;6.20;99.90;;;;;;4995143;28;20180;-79
2023/03/12 12:34:39;;;;;;;6.67;6.13;;;6.30;99.90;;;;;;4996355;28;20659;-79
2023/03/12 12:37:13;;;;;;;7.33;6.67;;;6.40;99.90;;;;;;4995641;28;20177;-80
2023/03/12 12:39:45;;;;;;;6.83;6.33;;;6.40;99.90;;;;;;4995733;28;20184;-80
2023/03/12 12:42:17;;;;;;;6.57;6.07;;;6.50;99.90;;;;;;4980180;28;20630;-80
2023/03/12 12:44:47;;;;;;;6.73;6.23;;;6.50;99.90;;;;;;4980356;28;20173;-80
2023/03/12 12:47:21;;;;;;;6.90;6.40;;;6.60;99.90;;;;;;4979286;28;20191;-80
2023/03/12 12:49:57;;;;;;;6.37;5.87;;;6.70;99.90;;;;;;4979899;28;20208;-79
2023/03/12 12:52:24;;;;;;;6.73;6.13;;;6.70;99.90;;;;;;4978842;28;20260;-79
2023/03/12 12:55:12;;;;;;;6.60;6.10;;;6.70;99.90;;;;;;4979394;28;20665;-80
2023/03/12 12:57:53;;;;;;;7.20;6.50;;;6.80;99.90;;;;;;4979275;28;20330;-79
2023/03/12 13:00:31;;;;;;;6.97;6.20;;;6.80;99.90;;;;;;4999616;28;20160;-79